createdAt,value
2022-08-17T00:01:52.317Z,49.09
2022-08-17T00:04:23.858Z,49.14
2022-08-17T00:06:54.157Z,49.03
2022-08-17T00:09:24.763Z,49.22
2022-08-17T00:12:40.660Z,49.19
2022-08-17T00:14:50.548Z,48.78
2022-08-17T00:17:21.173Z,48.69
2022-08-17T00:19:51.362Z,48.87
2022-08-17T00:22:34.758Z,48.41
2022-08-17T00:25:09.808Z,48.39
2022-08-17T00:27:43.054Z,48.61
2022-08-17T00:30:16.009Z,49.04
2022-08-17T00:33:14.033Z,49.46
2022-08-17T00:35:41.920Z,49.55
2022-08-17T00:38:13.444Z,49.17
2022-08-17T00:40:48.438Z,49.47
2022-08-17T00:43:30.459Z,49.20
2022-08-17T00:46:01.403Z,49.36
2022-08-17T00:48:32.369Z,49.11
2022-08-17T00:51:10.627Z,49.64
2022-08-17T00:53:46.342Z,50.10
2022-08-17T00:56:23.862Z,50.36
2022-08-17T00:58:58.237Z,50.20
2022-08-17T01:01:28.856Z,50.60
2022-08-17T01:04:00.646Z,50.63
2022-08-17T01:06:33.103Z,51.04
2022-08-17T01:09:04.947Z,50.90
2022-08-17T01:11:37.252Z,51.05
2022-08-17T01:14:11.801Z,51.20
2022-08-17T01:16:42.455Z,51.53
2022-08-17T01:19:20.312Z,51.40
2022-08-17T01:22:00.238Z,51.91
2022-08-17T01:24:36.258Z,51.99
2022-08-17T01:27:10.466Z,52.63
2022-08-17T01:29:45.457Z,52.53
2022-08-17T01:32:16.300Z,52.80
2022-08-17T01:34:50.544Z,52.75
2022-08-17T01:37:24.129Z,52.73
2022-08-17T01:40:01.262Z,52.92
2022-08-17T01:42:37.807Z,53.17
2022-08-17T01:45:13.078Z,53.37
2022-08-17T01:47:43.490Z,53.75
2022-08-17T01:50:18.166Z,53.96
2022-08-17T01:52:50.746Z,53.75
2022-08-17T01:55:31.716Z,54.05
2022-08-17T01:58:02.268Z,54.23
2022-08-17T02:00:59.380Z,54.61
2022-08-17T02:03:22.805Z,54.42
2022-08-17T02:05:53.495Z,54.97
2022-08-17T02:08:37.198Z,54.91
2022-08-17T02:11:17.059Z,55.47
2022-08-17T02:13:49.609Z,55.58
2022-08-17T02:16:37.776Z,55.42
2022-08-17T02:19:13.057Z,55.83
2022-08-17T02:21:45.364Z,55.77
2022-08-17T02:24:58.306Z,55.94
2022-08-17T02:27:15.839Z,55.86
2022-08-17T02:29:45.971Z,55.87
2022-08-17T02:32:27.957Z,55.99
2022-08-17T02:34:59.522Z,56.33
2022-08-17T02:37:31.815Z,56.18
2022-08-17T02:40:02.923Z,56.47
2022-08-17T02:42:41.489Z,56.48
2022-08-17T02:45:15.520Z,56.55
2022-08-17T02:47:47.095Z,56.65
2022-08-17T02:50:20.471Z,56.86
2022-08-17T02:53:01.713Z,56.94
2022-08-17T02:55:37.598Z,57.25
2022-08-17T02:58:11.696Z,57.59
2022-08-17T03:00:48.287Z,57.51
2022-08-17T03:03:21.570Z,56.93
2022-08-17T03:05:54.156Z,57.33
2022-08-17T03:08:24.013Z,57.48
2022-08-17T03:10:54.624Z,57.43
2022-08-17T03:13:27.338Z,58.05
2022-08-17T03:15:57.504Z,58.25
2022-08-17T03:18:28.127Z,58.59
2022-08-17T03:21:00.136Z,58.48
2022-08-17T03:23:32.349Z,58.51
2022-08-17T03:26:03.354Z,58.85
2022-08-17T03:28:36.169Z,58.77
2022-08-17T03:31:07.036Z,58.46
2022-08-17T03:33:37.560Z,58.50
2022-08-17T03:36:09.731Z,58.42
2022-08-17T03:38:40.242Z,58.55
2022-08-17T03:41:11.594Z,58.33
2022-08-17T03:43:44.420Z,58.77
2022-08-17T03:46:34.637Z,58.88
2022-08-17T03:49:20.833Z,58.90
2022-08-17T03:52:03.422Z,59.42
2022-08-17T03:54:45.976Z,59.26
2022-08-17T03:57:16.553Z,59.55
2022-08-17T03:59:49.611Z,59.57
2022-08-17T04:02:30.532Z,60.33
2022-08-17T04:05:01.461Z,60.25
2022-08-17T04:07:33.790Z,60.43
2022-08-17T04:10:04.292Z,60.05
2022-08-17T04:12:48.572Z,59.97
2022-08-17T04:15:21.855Z,60.02
2022-08-17T04:17:52.069Z,59.90
2022-08-17T04:20:25.315Z,59.93
2022-08-17T04:23:05.190Z,59.70
2022-08-17T04:25:39.103Z,59.93
2022-08-17T04:28:15.708Z,59.92
2022-08-17T04:30:50.344Z,59.73
2022-08-17T04:33:24.168Z,60.04
2022-08-17T04:35:56.824Z,60.02
2022-08-17T04:38:31.978Z,59.90
2022-08-17T04:41:16.100Z,59.44
2022-08-17T04:43:48.770Z,59.35
2022-08-17T04:46:26.580Z,59.64
2022-08-17T04:48:59.727Z,59.58
2022-08-17T04:51:33.185Z,59.61
2022-08-17T04:54:06.750Z,59.63
2022-08-17T04:56:38.576Z,59.66
2022-08-17T04:59:12.574Z,59.78
2022-08-17T05:01:48.013Z,59.97
2022-08-17T05:04:34.023Z,59.96
2022-08-17T05:07:05.853Z,60.19
2022-08-17T05:09:35.738Z,60.24
2022-08-17T05:12:07.314Z,60.13
2022-08-17T05:14:44.882Z,59.74
2022-08-17T05:17:19.864Z,59.75
2022-08-17T05:19:51.999Z,59.94
2022-08-17T05:22:22.350Z,59.44
2022-08-17T05:24:53.885Z,58.89
2022-08-17T05:27:26.917Z,58.62
2022-08-17T05:30:06.164Z,57.74
2022-08-17T05:32:51.150Z,57.34
2022-08-17T05:35:21.577Z,57.20
2022-08-17T05:37:52.095Z,56.73
2022-08-17T05:40:25.755Z,56.41
2022-08-17T05:43:07.601Z,56.65
2022-08-17T05:45:56.146Z,55.93
2022-08-17T05:48:35.486Z,55.57
2022-08-17T05:51:27.443Z,55.43
2022-08-17T05:54:12.867Z,54.57
2022-08-17T05:57:03.066Z,54.57
2022-08-17T05:59:48.298Z,54.33
2022-08-17T06:02:26.665Z,54.17
2022-08-17T06:05:20.039Z,53.65
2022-08-17T06:07:58.382Z,53.25
2022-08-17T06:10:37.278Z,52.00
2022-08-17T06:13:19.086Z,51.54
2022-08-17T06:16:02.404Z,50.94
2022-08-17T06:18:41.648Z,50.82
2022-08-17T06:21:20.898Z,50.17
2022-08-17T06:24:04.125Z,49.88
2022-08-17T06:26:41.084Z,49.28
2022-08-17T06:29:24.883Z,49.38
2022-08-17T06:31:55.085Z,49.49
2022-08-17T06:34:25.287Z,48.78
2022-08-17T06:37:05.568Z,48.26
2022-08-17T06:39:48.439Z,48.17
2022-08-17T06:42:54.154Z,47.76
2022-08-17T06:45:31.551Z,47.03
2022-08-17T06:48:10.610Z,46.36
2022-08-17T06:50:47.519Z,45.75
2022-08-17T06:53:27.631Z,45.13
2022-08-17T06:56:04.634Z,44.93
2022-08-17T06:58:37.786Z,44.42
2022-08-17T07:01:16.899Z,43.92
2022-08-17T07:03:54.762Z,42.68
2022-08-17T07:06:32.615Z,42.23
2022-08-17T07:09:18.252Z,41.58
2022-08-17T07:11:53.239Z,41.55
2022-08-17T07:14:38.521Z,41.49
2022-08-17T07:17:15.897Z,40.90
2022-08-17T07:19:48.918Z,41.23
2022-08-17T07:22:30.516Z,41.66
2022-08-17T07:25:23.924Z,41.29
2022-08-17T07:28:00.332Z,41.33
2022-08-17T07:30:37.151Z,40.36
2022-08-17T07:33:22.847Z,39.98
2022-08-17T07:35:53.739Z,39.21
2022-08-17T07:38:28.471Z,38.79
2022-08-17T07:41:13.526Z,37.15
2022-08-17T07:43:52.978Z,37.29
2022-08-17T07:46:39.631Z,36.88
2022-08-17T07:49:37.917Z,37.01
2022-08-17T07:52:47.945Z,37.42
2022-08-17T07:55:03.546Z,36.07
2022-08-17T07:57:39.744Z,35.93
2022-08-17T08:00:29.169Z,35.89
2022-08-17T08:03:25.418Z,35.76
2022-08-17T08:06:01.401Z,35.48
2022-08-17T08:08:37.038Z,35.35
2022-08-17T08:11:11.584Z,35.27
2022-08-17T08:13:46.761Z,34.47
2022-08-17T08:16:25.578Z,33.95
2022-08-17T08:18:59.526Z,33.54
2022-08-17T08:21:46.584Z,32.33
2022-08-17T08:24:43.377Z,31.56
2022-08-17T08:27:27.632Z,30.82
2022-08-17T08:30:10.925Z,30.10
2022-08-17T08:33:02.347Z,29.42
2022-08-17T08:35:37.073Z,28.60
2022-08-17T08:38:20.060Z,26.29
2022-08-17T08:41:08.835Z,26.09
2022-08-17T08:43:53.511Z,25.10
2022-08-17T08:46:34.768Z,23.84
2022-08-17T08:50:03.267Z,23.90
2022-08-17T08:53:12.330Z,22.79
2022-08-17T08:55:54.509Z,22.29
2022-08-17T08:58:41.276Z,22.88
2022-08-17T09:01:24.170Z,21.37
2022-08-17T09:04:24.607Z,21.50
2022-08-17T09:07:09.769Z,21.04
2022-08-17T09:09:57.311Z,21.33
2022-08-17T09:12:42.293Z,20.12
2022-08-17T09:15:20.228Z,20.13
2022-08-17T09:18:58.977Z,20.63
2022-08-17T09:21:00.797Z,19.72
2022-08-17T09:23:42.494Z,19.08
2022-08-17T09:26:17.445Z,19.41
2022-08-17T09:28:54.724Z,19.06
2022-08-17T09:31:46.461Z,18.57
2022-08-17T09:34:29.569Z,18.05
2022-08-17T09:37:21.642Z,18.52
2022-08-17T09:40:08.780Z,18.20
2022-08-17T09:42:50.030Z,18.51
2022-08-17T09:45:33.241Z,18.19
2022-08-17T09:48:10.132Z,17.85
2022-08-17T09:51:03.440Z,18.07
2022-08-17T09:53:40.420Z,18.19
2022-08-17T09:56:29.712Z,17.91
2022-08-17T09:59:27.507Z,18.38
2022-08-17T10:02:34.836Z,18.52
2022-08-17T10:05:12.142Z,18.02
2022-08-17T10:07:49.367Z,18.35
2022-08-17T10:10:33.003Z,18.53
2022-08-17T10:16:23.646Z,17.61
2022-08-17T10:19:08.133Z,17.37
2022-08-17T10:22:01.238Z,17.67
2022-08-17T10:25:23.480Z,17.57
2022-08-17T10:28:01.754Z,17.76
2022-08-17T10:30:36.808Z,17.08
2022-08-17T10:33:16.186Z,17.02
2022-08-17T10:35:57.296Z,16.97
2022-08-17T10:38:46.192Z,17.06
2022-08-17T10:41:30.830Z,17.61
2022-08-17T10:44:39.054Z,17.89
2022-08-17T10:47:12.833Z,17.86
2022-08-17T10:49:47.621Z,18.89
2022-08-17T10:52:51.891Z,18.77
2022-08-17T10:55:25.840Z,17.80
2022-08-17T10:58:24.773Z,17.53
2022-08-17T11:01:04.136Z,17.09
2022-08-17T11:03:35.022Z,17.03
2022-08-17T11:06:17.821Z,16.54
2022-08-17T11:09:20.034Z,16.78
2022-08-17T11:12:10.490Z,16.67
2022-08-17T11:15:02.830Z,15.67
2022-08-17T11:18:10.386Z,15.15
2022-08-17T11:21:06.766Z,14.99
2022-08-17T11:24:02.061Z,14.69
2022-08-17T11:26:36.324Z,14.76
2022-08-17T11:29:19.795Z,14.01
2022-08-17T11:32:15.426Z,14.12
2022-08-17T11:34:46.656Z,14.15
2022-08-17T11:37:50.328Z,13.50
2022-08-17T11:41:08.345Z,14.50
2022-08-17T11:44:05.838Z,13.62
2022-08-17T11:47:08.972Z,13.53
2022-08-17T11:50:25.730Z,13.91
2022-08-17T11:52:58.239Z,13.52
2022-08-17T11:56:04.838Z,13.23
2022-08-17T11:58:42.761Z,13.44
2022-08-17T12:01:16.090Z,13.64
2022-08-17T12:03:55.574Z,12.96
2022-08-17T12:06:48.725Z,12.95
2022-08-17T12:09:24.692Z,13.00
2022-08-17T12:12:12.682Z,12.95
2022-08-17T12:15:09.626Z,12.24
2022-08-17T12:17:42.983Z,12.55
2022-08-17T12:20:24.361Z,12.75
2022-08-17T12:23:05.558Z,12.39
2022-08-17T12:25:42.493Z,12.60
2022-08-17T12:28:24.915Z,12.77
2022-08-17T12:30:56.358Z,12.19
2022-08-17T12:33:29.026Z,12.40
2022-08-17T12:36:04.124Z,11.96
2022-08-17T12:38:39.962Z,11.83
2022-08-17T12:41:24.296Z,12.63
2022-08-17T12:44:03.788Z,12.71
2022-08-17T12:46:37.790Z,12.74
2022-08-17T12:49:19.810Z,13.03
2022-08-17T12:51:50.992Z,13.52
2022-08-17T12:54:36.728Z,13.88
2022-08-17T12:57:14.328Z,13.81
2022-08-17T12:59:48.914Z,12.95
2022-08-17T13:02:33.685Z,12.99
2022-08-17T13:05:04.946Z,13.42
2022-08-17T13:07:44.698Z,12.71
2022-08-17T13:10:28.637Z,12.41
2022-08-17T13:13:05.009Z,12.20
2022-08-17T13:15:44.713Z,12.00
2022-08-17T13:18:40.311Z,12.65
2022-08-17T13:21:22.339Z,11.33
2022-08-17T13:24:04.253Z,11.43
2022-08-17T13:26:40.835Z,12.07
2022-08-17T13:29:24.750Z,12.00
2022-08-17T13:32:04.766Z,11.70
2022-08-17T13:34:56.210Z,11.38
2022-08-17T13:37:35.965Z,11.91
2022-08-17T13:40:34.744Z,12.41
2022-08-17T13:43:08.243Z,12.34
2022-08-17T13:45:51.120Z,12.30
2022-08-17T13:48:29.868Z,12.49
2022-08-17T13:51:18.928Z,12.44
2022-08-17T13:54:00.978Z,12.71
2022-08-17T13:56:39.510Z,12.09
2022-08-17T13:59:16.240Z,12.17
2022-08-17T14:01:53.475Z,12.11
2022-08-17T14:04:27.940Z,12.74
2022-08-17T14:07:01.349Z,12.10
2022-08-17T14:09:37.435Z,12.38
2022-08-17T14:12:13.271Z,12.25
2022-08-17T14:14:49.812Z,12.35
2022-08-17T14:17:20.220Z,12.80
2022-08-17T14:19:50.985Z,12.63
2022-08-17T14:22:28.491Z,12.82
2022-08-17T14:25:01.706Z,13.11
2022-08-17T14:27:51.961Z,12.99
2022-08-17T14:30:29.728Z,12.53
2022-08-17T14:33:02.321Z,12.60
2022-08-17T14:35:32.724Z,11.98
2022-08-17T14:38:03.402Z,12.30
2022-08-17T14:40:34.803Z,12.43
2022-08-17T14:43:04.970Z,12.65
2022-08-17T14:45:37.729Z,12.35
2022-08-17T14:48:10.304Z,12.83
2022-08-17T14:50:44.299Z,12.66
2022-08-17T14:53:17.963Z,12.54
2022-08-17T14:55:48.724Z,12.67
2022-08-17T14:58:19.579Z,12.47
2022-08-17T15:00:53.501Z,12.67
2022-08-17T15:03:23.671Z,13.17
2022-08-17T15:05:53.999Z,13.24
2022-08-17T15:08:24.161Z,13.39
2022-08-17T15:10:54.535Z,13.73
2022-08-17T15:13:27.218Z,13.99
2022-08-17T15:16:02.663Z,14.08
2022-08-17T15:18:33.768Z,14.09
2022-08-17T15:21:06.775Z,14.39
2022-08-17T15:23:36.963Z,14.99
2022-08-17T15:26:07.313Z,15.53
2022-08-17T15:28:37.807Z,15.29
2022-08-17T15:31:10.666Z,15.67
2022-08-17T15:33:41.060Z,15.74
2022-08-17T15:36:11.951Z,15.51
2022-08-17T15:38:42.144Z,16.14
2022-08-17T15:41:18.505Z,16.61
2022-08-17T15:43:50.441Z,16.66
2022-08-17T15:46:27.316Z,17.32
2022-08-17T15:48:59.598Z,17.93
2022-08-17T15:51:32.865Z,18.32
2022-08-17T15:54:18.779Z,18.90
2022-08-17T15:56:52.637Z,19.71
2022-08-17T15:59:22.857Z,20.38
2022-08-17T16:03:14.774Z,20.86
2022-08-17T16:04:46.900Z,21.41
2022-08-17T16:07:26.455Z,21.83
2022-08-17T16:09:57.032Z,21.96
2022-08-17T16:12:28.066Z,22.29
2022-08-17T16:14:59.891Z,22.67
2022-08-17T16:17:39.514Z,23.19
2022-08-17T16:20:20.223Z,23.39
2022-08-17T16:22:54.154Z,23.66
2022-08-17T16:25:49.048Z,24.31
2022-08-17T16:28:21.944Z,24.31
2022-08-17T16:30:52.121Z,24.64
2022-08-17T16:33:24.889Z,25.06
2022-08-17T16:35:55.101Z,25.13
2022-08-17T16:38:25.285Z,25.25
2022-08-17T16:40:55.459Z,25.60
2022-08-17T16:43:25.784Z,25.81
2022-08-17T16:45:55.926Z,25.84
2022-08-17T16:48:28.805Z,26.45
2022-08-17T16:51:03.456Z,26.47
2022-08-17T16:53:34.864Z,26.74
2022-08-17T16:56:05.347Z,26.45
2022-08-17T16:58:35.938Z,26.84
2022-08-17T17:01:08.020Z,26.95
2022-08-17T17:03:44.007Z,27.48
2022-08-17T17:06:22.219Z,27.83
2022-08-17T17:08:59.292Z,28.25
2022-08-17T17:11:36.466Z,28.73
2022-08-17T17:14:12.517Z,29.05
2022-08-17T17:16:48.755Z,29.18
2022-08-17T17:19:35.096Z,29.14
2022-08-17T17:22:18.387Z,29.44
2022-08-17T17:25:10.931Z,29.49
2022-08-17T17:27:53.368Z,29.54
2022-08-17T17:30:28.193Z,29.57
2022-08-17T17:33:05.813Z,29.95
2022-08-17T17:35:50.015Z,30.84
2022-08-17T17:38:29.209Z,31.11
2022-08-17T17:41:07.271Z,31.23
2022-08-17T17:43:40.102Z,31.19
2022-08-17T17:46:27.574Z,31.35
2022-08-17T17:48:58.436Z,31.40
2022-08-17T17:52:08.500Z,31.34
2022-08-17T17:54:46.395Z,31.92
2022-08-17T17:57:32.621Z,31.57
2022-08-17T18:00:10.932Z,31.50
2022-08-17T18:03:03.084Z,31.74
2022-08-17T18:05:51.389Z,31.89
2022-08-17T18:08:45.147Z,32.03
2022-08-17T18:12:06.577Z,32.20
2022-08-17T18:14:58.286Z,32.72
2022-08-17T18:17:31.157Z,32.48
2022-08-17T18:20:01.617Z,32.22
2022-08-17T18:22:31.973Z,32.40
2022-08-17T18:25:04.886Z,32.47
2022-08-17T18:27:38.295Z,32.55
2022-08-17T18:30:30.286Z,32.80
2022-08-17T18:33:26.650Z,32.88
2022-08-17T18:35:59.275Z,32.55
2022-08-17T18:38:35.759Z,32.77
2022-08-17T18:41:24.418Z,33.06
2022-08-17T18:44:06.157Z,33.04
2022-08-17T18:46:39.043Z,33.48
2022-08-17T18:49:28.873Z,33.29
2022-08-17T18:52:14.902Z,33.15
2022-08-17T18:55:08.741Z,32.84
2022-08-17T18:57:47.544Z,33.44
2022-08-17T19:00:35.926Z,33.20
2022-08-17T19:03:25.166Z,33.08
2022-08-17T19:05:58.879Z,33.53
2022-08-17T19:08:38.307Z,33.38
2022-08-17T19:11:13.336Z,33.65
2022-08-17T19:13:50.166Z,33.35
2022-08-17T19:16:27.086Z,33.27
2022-08-17T19:19:07.643Z,34.36
2022-08-17T19:21:43.195Z,34.35
2022-08-17T19:24:20.979Z,34.26
2022-08-17T19:26:59.052Z,34.73
2022-08-17T19:29:40.191Z,35.00
2022-08-17T19:32:11.172Z,35.24
2022-08-17T19:34:44.802Z,35.40
2022-08-17T19:37:30.541Z,35.42
2022-08-17T19:40:35.023Z,35.71
2022-08-17T19:43:20.085Z,36.15
2022-08-17T19:46:07.240Z,36.20
2022-08-17T19:48:48.580Z,35.77
2022-08-17T19:51:30.736Z,35.71
2022-08-17T19:54:09.492Z,36.08
2022-08-17T19:56:50.799Z,35.79
2022-08-17T19:59:37.842Z,36.44
2022-08-17T20:02:26.744Z,36.17
2022-08-17T20:05:01.911Z,36.32
2022-08-17T20:07:42.084Z,36.31
2022-08-17T20:10:21.002Z,35.89
2022-08-17T20:12:54.969Z,36.04
2022-08-17T20:15:32.094Z,36.03
2022-08-17T20:18:15.694Z,36.29
2022-08-17T20:20:57.617Z,36.73
2022-08-17T20:23:52.166Z,37.29
2022-08-17T20:26:27.457Z,37.19
2022-08-17T20:29:39.594Z,36.83
2022-08-17T20:32:29.983Z,36.82
2022-08-17T20:35:28.787Z,36.87
2022-08-17T20:38:03.392Z,36.82
2022-08-17T20:40:40.934Z,37.11
2022-08-17T20:43:54.384Z,36.91
2022-08-17T20:46:43.133Z,37.08
2022-08-17T20:49:26.167Z,37.49
2022-08-17T20:52:07.813Z,37.47
2022-08-17T20:54:54.007Z,37.97
2022-08-17T20:57:50.358Z,37.61
2022-08-17T21:00:50.238Z,38.84
2022-08-17T21:03:54.338Z,39.21
2022-08-17T21:06:27.543Z,38.47
2022-08-17T21:09:32.592Z,39.09
2022-08-17T21:12:05.799Z,39.27
2022-08-17T21:15:00.410Z,39.17
2022-08-17T21:17:51.608Z,39.07
2022-08-17T21:20:37.220Z,39.46
2022-08-17T21:23:30.270Z,38.67
2022-08-17T21:26:30.422Z,39.11
2022-08-17T21:29:31.338Z,39.61
2022-08-17T21:32:24.663Z,39.13
2022-08-17T21:35:51.009Z,39.11
2022-08-17T21:38:23.978Z,39.02
2022-08-17T21:40:56.736Z,39.19
2022-08-17T21:43:33.218Z,38.10
2022-08-17T21:46:08.398Z,37.63
2022-08-17T21:48:49.460Z,37.71
2022-08-17T21:51:29.814Z,37.33
2022-08-17T21:54:04.602Z,37.26
2022-08-17T21:56:38.573Z,37.57
2022-08-17T21:59:28.357Z,37.17
2022-08-17T22:02:01.581Z,37.22
2022-08-17T22:04:34.689Z,37.36
2022-08-17T22:07:08.871Z,37.48
2022-08-17T22:09:47.168Z,37.21
2022-08-17T22:12:21.398Z,37.77
2022-08-17T22:15:06.090Z,38.36
2022-08-17T22:17:40.505Z,38.01
2022-08-17T22:20:15.935Z,37.85
2022-08-17T22:23:28.183Z,38.30
2022-08-17T22:26:05.960Z,38.20
2022-08-17T22:28:46.883Z,37.92
2022-08-17T22:31:22.918Z,37.67
2022-08-17T22:33:55.957Z,37.85
2022-08-17T22:36:32.156Z,37.78
2022-08-17T22:39:05.490Z,38.44
2022-08-17T22:41:54.077Z,38.27
2022-08-17T22:44:29.655Z,38.58
2022-08-17T22:47:11.136Z,39.13
2022-08-17T22:49:53.969Z,38.73
2022-08-17T22:52:34.522Z,39.47
2022-08-17T22:55:23.489Z,39.44
2022-08-17T22:58:06.332Z,39.40
2022-08-17T23:00:42.381Z,39.58
2022-08-17T23:03:19.618Z,39.82
2022-08-17T23:06:06.233Z,39.92
2022-08-17T23:08:42.760Z,39.81
2022-08-17T23:11:14.376Z,39.54
2022-08-17T23:13:44.611Z,39.65
2022-08-17T23:16:15.207Z,39.89
2022-08-17T23:18:50.951Z,40.41
2022-08-17T23:21:26.640Z,40.47
2022-08-17T23:23:59.196Z,40.63
2022-08-17T23:26:30.044Z,41.24
2022-08-17T23:29:04.439Z,41.49
2022-08-17T23:31:35.069Z,42.17
2022-08-17T23:34:12.078Z,42.45
2022-08-17T23:36:52.482Z,42.59
2022-08-17T23:39:28.240Z,42.70
2022-08-17T23:42:00.426Z,42.50
2022-08-17T23:44:31.514Z,42.40
2022-08-17T23:47:03.674Z,43.01
2022-08-17T23:49:37.666Z,43.05
2022-08-17T23:52:14.990Z,43.32
2022-08-17T23:54:49.940Z,43.19
2022-08-17T23:57:33.837Z,43.34
